createdAt,value
2022-10-05T00:00:57.636Z,101530.13
2022-10-05T00:03:37.226Z,101531.41
2022-10-05T00:06:05.056Z,101525.09
2022-10-05T00:08:34.729Z,101526.97
2022-10-05T00:11:02.019Z,101524.16
2022-10-05T00:13:30.755Z,101536.53
2022-10-05T00:16:21.347Z,101523.78
2022-10-05T00:18:53.280Z,101519.53
2022-10-05T00:21:27.476Z,101522.00
2022-10-05T00:23:57.822Z,101513.34
2022-10-05T00:26:27.627Z,101500.84
2022-10-05T00:28:55.181Z,101507.03
2022-10-05T00:31:31.613Z,101524.41
2022-10-05T00:33:59.118Z,101521.59
2022-10-05T00:36:28.550Z,101524.16
2022-10-05T00:38:55.648Z,101528.94
2022-10-05T00:41:46.241Z,101526.25
2022-10-05T00:44:35.006Z,101526.69
2022-10-05T00:47:26.007Z,101522.59
2022-10-05T00:50:18.268Z,101527.38
2022-10-05T00:53:29.792Z,101524.34
2022-10-05T00:56:32.833Z,101516.16
2022-10-05T00:59:21.611Z,101505.88
2022-10-05T01:01:48.755Z,101513.78
2022-10-05T01:04:24.066Z,101500.59
2022-10-05T01:07:44.009Z,101501.88
2022-10-05T01:10:28.216Z,101490.78
2022-10-05T01:13:23.985Z,101490.41
2022-10-05T01:16:08.342Z,101492.28
2022-10-05T01:19:02.273Z,101497.63
2022-10-05T01:21:39.148Z,101499.72
2022-10-05T01:24:50.227Z,101508.13
2022-10-05T01:27:43.260Z,101491.09
2022-10-05T01:30:14.457Z,101483.63
2022-10-05T01:33:09.554Z,101460.91
2022-10-05T01:36:13.065Z,101453.31
2022-10-05T01:38:59.364Z,101466.72
2022-10-05T01:42:08.573Z,101485.28
2022-10-05T01:44:54.307Z,101478.50
2022-10-05T01:47:39.138Z,101481.78
2022-10-05T01:51:07.880Z,101486.31
2022-10-05T01:53:53.854Z,101491.91
2022-10-05T01:57:21.645Z,101480.00
2022-10-05T02:00:08.066Z,101484.97
2022-10-05T02:03:20.414Z,101484.59
2022-10-05T02:06:03.425Z,101484.47
2022-10-05T02:09:22.497Z,101489.38
2022-10-05T02:12:00.588Z,101495.63
2022-10-05T02:14:42.263Z,101491.31
2022-10-05T02:17:20.336Z,101489.03
2022-10-05T02:19:59.366Z,101494.84
2022-10-05T02:22:54.791Z,101496.72
2022-10-05T02:25:34.277Z,101496.56
2022-10-05T02:28:26.224Z,101492.84
2022-10-05T02:31:01.608Z,101492.47
2022-10-05T02:33:32.119Z,101488.97
2022-10-05T02:36:30.493Z,101497.03
2022-10-05T02:39:03.660Z,101484.66
2022-10-05T02:42:00.185Z,101492.69
2022-10-05T02:44:38.883Z,101486.53
2022-10-05T02:47:21.292Z,101490.03
2022-10-05T02:50:17.277Z,101488.38
2022-10-05T02:53:00.490Z,101484.75
2022-10-05T02:56:10.945Z,101486.59
2022-10-05T02:59:05.025Z,101485.56
2022-10-05T03:01:56.042Z,101490.09
2022-10-05T03:04:48.445Z,101493.81
2022-10-05T03:07:29.624Z,101479.59
2022-10-05T03:10:29.053Z,101475.06
2022-10-05T03:13:09.594Z,101472.00
2022-10-05T03:16:26.125Z,101469.56
2022-10-05T03:19:05.771Z,101472.25
2022-10-05T03:21:53.933Z,101476.56
2022-10-05T03:24:37.025Z,101481.47
2022-10-05T03:27:29.550Z,101471.56
2022-10-05T03:30:08.791Z,101464.94
2022-10-05T03:32:49.055Z,101461.00
2022-10-05T03:35:53.682Z,101457.50
2022-10-05T03:38:48.684Z,101465.09
2022-10-05T03:41:49.372Z,101458.69
2022-10-05T03:44:51.990Z,101454.97
2022-10-05T03:47:37.937Z,101451.25
2022-10-05T03:50:16.277Z,101447.28
2022-10-05T03:52:54.323Z,101444.75
2022-10-05T03:55:45.396Z,101435.91
2022-10-05T03:58:25.467Z,101436.66
2022-10-05T04:01:02.757Z,101437.03
2022-10-05T04:03:45.992Z,101423.97
2022-10-05T04:06:21.477Z,101420.84
2022-10-05T04:09:30.449Z,101424.13
2022-10-05T04:12:32.917Z,101408.88
2022-10-05T04:15:23.808Z,101422.06
2022-10-05T04:18:03.893Z,101422.66
2022-10-05T04:20:44.136Z,101427.78
2022-10-05T04:23:21.537Z,101429.78
2022-10-05T04:26:26.936Z,101429.78
2022-10-05T04:29:05.817Z,101423.16
2022-10-05T04:32:09.237Z,101427.00
2022-10-05T04:35:01.409Z,101427.81
2022-10-05T04:37:47.035Z,101419.78
2022-10-05T04:41:00.363Z,101433.19
2022-10-05T04:43:59.570Z,101416.28
2022-10-05T04:47:19.496Z,101425.16
2022-10-05T04:50:26.469Z,101430.50
2022-10-05T04:53:38.163Z,101420.81
2022-10-05T04:56:16.448Z,101423.06
2022-10-05T04:59:02.915Z,101427.16
2022-10-05T05:01:48.413Z,101429.59
2022-10-05T05:05:00.112Z,101433.09
2022-10-05T05:07:42.946Z,101439.28
2022-10-05T05:10:43.812Z,101432.50
2022-10-05T05:13:38.413Z,101426.69
2022-10-05T05:16:19.976Z,101422.97
2022-10-05T05:19:24.812Z,101427.03
2022-10-05T05:22:31.783Z,101423.09
2022-10-05T05:25:42.094Z,101423.69
2022-10-05T05:28:42.689Z,101419.72
2022-10-05T05:31:30.929Z,101425.22
2022-10-05T05:34:41.682Z,101425.34
2022-10-05T05:37:33.976Z,101429.44
2022-10-05T05:40:11.378Z,101421.72
2022-10-05T05:43:03.447Z,101411.13
2022-10-05T05:45:42.832Z,101405.53
2022-10-05T05:48:36.085Z,101402.38
2022-10-05T05:51:12.015Z,101390.38
2022-10-05T05:53:41.370Z,101395.72
2022-10-05T05:56:33.639Z,101409.66
2022-10-05T05:59:34.520Z,101404.06
2022-10-05T06:02:10.499Z,101412.22
2022-10-05T06:04:49.456Z,101417.50
2022-10-05T06:07:30.223Z,101416.19
2022-10-05T06:10:31.685Z,101407.44
2022-10-05T06:13:19.611Z,101408.97
2022-10-05T06:15:58.176Z,101402.66
2022-10-05T06:18:25.994Z,101409.78
2022-10-05T06:21:08.448Z,101420.16
2022-10-05T06:23:58.175Z,101413.41
2022-10-05T06:27:06.823Z,101412.56
2022-10-05T06:29:59.239Z,101421.31
2022-10-05T06:32:49.872Z,101411.03
2022-10-05T06:35:39.413Z,101420.63
2022-10-05T06:38:22.656Z,101424.81
2022-10-05T06:41:29.520Z,101423.72
2022-10-05T06:44:13.639Z,101406.97
2022-10-05T06:47:09.233Z,101419.31
2022-10-05T06:50:25.195Z,101425.69
2022-10-05T06:53:52.874Z,101415.94
2022-10-05T06:56:45.566Z,101411.22
2022-10-05T06:59:52.960Z,101423.84
2022-10-05T07:02:34.683Z,101437.72
2022-10-05T07:05:30.025Z,101438.00
2022-10-05T07:08:01.765Z,101434.41
2022-10-05T07:10:46.774Z,101421.44
2022-10-05T07:13:54.046Z,101414.63
2022-10-05T07:17:06.120Z,101410.78
2022-10-05T07:19:55.118Z,101417.63
2022-10-05T07:23:12.754Z,101420.50
2022-10-05T07:26:20.187Z,101420.75
2022-10-05T07:29:06.925Z,101427.66
2022-10-05T07:31:41.274Z,101419.88
2022-10-05T07:34:21.947Z,101414.34
2022-10-05T07:37:21.688Z,101406.88
2022-10-05T07:40:03.412Z,101419.66
2022-10-05T07:43:03.176Z,101414.94
2022-10-05T07:45:44.088Z,101416.78
2022-10-05T07:48:49.584Z,101405.75
2022-10-05T07:51:35.262Z,101405.19
2022-10-05T07:54:45.281Z,101427.28
2022-10-05T07:57:25.699Z,101431.19
2022-10-05T08:00:05.968Z,101436.13
2022-10-05T08:02:58.435Z,101416.75
2022-10-05T08:05:36.028Z,101409.22
2022-10-05T08:08:21.269Z,101414.91
2022-10-05T08:11:07.066Z,101412.22
2022-10-05T08:13:51.794Z,101414.69
2022-10-05T08:16:19.672Z,101429.63
2022-10-05T08:19:00.224Z,101405.00
2022-10-05T08:22:08.560Z,101396.09
2022-10-05T08:25:03.613Z,101374.19
2022-10-05T08:27:48.801Z,101372.59
2022-10-05T08:30:16.992Z,101358.31
2022-10-05T08:33:10.513Z,101381.38
2022-10-05T08:35:50.204Z,101364.31
2022-10-05T08:38:25.062Z,101359.72
2022-10-05T08:41:07.182Z,101351.91
2022-10-05T08:43:45.856Z,101358.72
2022-10-05T08:46:46.478Z,101352.22
2022-10-05T08:49:22.341Z,101355.75
2022-10-05T08:52:11.790Z,101345.72
2022-10-05T08:54:46.663Z,101335.72
2022-10-05T08:57:46.579Z,101346.84
2022-10-05T09:00:25.526Z,101337.63
2022-10-05T09:03:28.970Z,101343.03
2022-10-05T09:06:44.807Z,101332.19
2022-10-05T09:09:33.364Z,101338.97
2022-10-05T09:12:46.252Z,101330.00
2022-10-05T09:15:45.892Z,101336.22
2022-10-05T09:18:42.198Z,101329.97
2022-10-05T09:21:38.472Z,101334.56
2022-10-05T09:24:14.590Z,101331.56
2022-10-05T09:26:44.489Z,101327.22
2022-10-05T09:30:05.404Z,101327.75
2022-10-05T09:32:59.212Z,101322.56
2022-10-05T09:36:07.502Z,101323.09
2022-10-05T09:39:13.299Z,101321.72
2022-10-05T09:42:40.505Z,101319.28
2022-10-05T09:45:45.664Z,101315.75
2022-10-05T09:48:30.194Z,101313.84
2022-10-05T09:51:44.488Z,101298.69
2022-10-05T09:54:33.518Z,101288.63
2022-10-05T09:57:47.206Z,101305.91
2022-10-05T10:00:35.514Z,101305.06
2022-10-05T10:03:44.348Z,101299.84
2022-10-05T10:06:43.291Z,101291.84
2022-10-05T10:09:55.445Z,101297.97
2022-10-05T10:12:30.841Z,101291.88
2022-10-05T10:15:28.757Z,101303.19
2022-10-05T10:18:08.799Z,101301.75
2022-10-05T10:20:59.340Z,101286.44
2022-10-05T10:23:37.967Z,101285.63
2022-10-05T10:26:51.583Z,101284.50
2022-10-05T10:29:33.275Z,101278.47
2022-10-05T10:32:34.889Z,101270.09
2022-10-05T10:35:19.636Z,101280.25
2022-10-05T10:38:14.074Z,101289.88
2022-10-05T10:41:08.756Z,101299.63
2022-10-05T10:44:10.990Z,101298.22
2022-10-05T10:46:57.165Z,101302.13
2022-10-05T10:49:57.974Z,101303.84
2022-10-05T10:53:22.745Z,101288.56
2022-10-05T10:56:02.919Z,101290.44
2022-10-05T10:58:57.993Z,101293.16
2022-10-05T11:01:40.249Z,101284.72
2022-10-05T11:04:33.631Z,101288.41
2022-10-05T11:08:10.469Z,101277.03
2022-10-05T11:11:09.014Z,101270.16
2022-10-05T11:14:21.463Z,101255.91
2022-10-05T11:17:15.502Z,101251.00
2022-10-05T11:20:04.097Z,101242.63
2022-10-05T11:22:59.453Z,101236.13
2022-10-05T11:26:14.489Z,101231.31
2022-10-05T11:29:42.650Z,101224.84
2022-10-05T11:33:02.976Z,101212.09
2022-10-05T11:35:52.933Z,101212.13
2022-10-05T11:38:42.153Z,101204.91
2022-10-05T11:41:26.353Z,101199.63
2022-10-05T11:44:16.449Z,101180.22
2022-10-05T11:47:11.455Z,101194.88
2022-10-05T11:50:16.289Z,101199.66
2022-10-05T11:52:54.519Z,101193.56
2022-10-05T11:55:37.906Z,101187.91
2022-10-05T11:58:43.024Z,101193.63
2022-10-05T12:01:23.450Z,101184.22
2022-10-05T12:04:18.313Z,101195.53
2022-10-05T12:07:08.240Z,101197.88
2022-10-05T12:10:24.069Z,101188.84
2022-10-05T12:13:05.074Z,101192.69
2022-10-05T12:15:50.179Z,101191.22
2022-10-05T12:18:45.912Z,101188.03
2022-10-05T12:21:37.133Z,101191.25
2022-10-05T12:24:35.077Z,101180.13
2022-10-05T12:27:18.599Z,101181.66
2022-10-05T12:29:48.188Z,101172.41
2022-10-05T12:32:23.301Z,101162.44
2022-10-05T12:35:01.890Z,101163.69
2022-10-05T12:37:47.028Z,101156.13
2022-10-05T12:41:00.055Z,101150.22
2022-10-05T12:44:02.741Z,101139.72
2022-10-05T12:47:23.057Z,101132.22
2022-10-05T12:50:24.361Z,101128.72
2022-10-05T12:53:28.914Z,101135.06
2022-10-05T12:56:07.360Z,101133.63
2022-10-05T12:58:46.752Z,101132.75
2022-10-05T13:01:47.854Z,101129.97
2022-10-05T13:04:31.004Z,101124.72
2022-10-05T13:07:25.097Z,101128.91
2022-10-05T13:10:03.617Z,101116.19
2022-10-05T13:13:00.771Z,101117.56
2022-10-05T13:16:04.567Z,101116.78
2022-10-05T13:19:14.936Z,101108.69
2022-10-05T13:22:15.835Z,101119.09
2022-10-05T13:24:53.891Z,101112.25
2022-10-05T13:27:27.941Z,101120.63
2022-10-05T13:30:03.768Z,101109.91
2022-10-05T13:32:47.907Z,101113.06
2022-10-05T13:35:40.249Z,101121.50
2022-10-05T13:38:23.311Z,101111.94
2022-10-05T13:41:27.383Z,101111.84
2022-10-05T13:44:38.414Z,101115.53
2022-10-05T13:47:32.661Z,101109.16
2022-10-05T13:50:09.594Z,101108.03
2022-10-05T13:53:03.664Z,101105.13
2022-10-05T13:55:51.023Z,101098.53
2022-10-05T13:58:42.971Z,101108.75
2022-10-05T14:01:43.293Z,101088.09
2022-10-05T14:04:29.385Z,101082.16
2022-10-05T14:06:56.616Z,101105.91
2022-10-05T14:09:33.992Z,101107.53
2022-10-05T14:12:03.663Z,101107.78
2022-10-05T14:14:34.334Z,101109.38
2022-10-05T14:17:05.933Z,101110.59
2022-10-05T14:19:44.164Z,101109.97
2022-10-05T14:22:25.026Z,101106.03
2022-10-05T14:25:10.060Z,101103.81
2022-10-05T14:27:51.551Z,101103.38
2022-10-05T14:30:25.682Z,101098.75
2022-10-05T14:33:07.028Z,101110.28
2022-10-05T14:35:53.740Z,101118.25
2022-10-05T14:38:31.644Z,101101.06
2022-10-05T14:41:19.899Z,101096.44
2022-10-05T14:44:02.029Z,101105.19
2022-10-05T14:46:34.625Z,101098.41
2022-10-05T14:49:16.963Z,101090.16
2022-10-05T14:51:44.438Z,101084.50
2022-10-05T14:54:45.986Z,101095.47
2022-10-05T14:57:39.969Z,101081.28
2022-10-05T15:00:16.477Z,101076.09
2022-10-05T15:03:08.917Z,101076.50
2022-10-05T15:05:59.270Z,101084.38
2022-10-05T15:08:48.085Z,101067.97
2022-10-05T15:11:40.479Z,101058.47
2022-10-05T15:14:19.651Z,101064.75
2022-10-05T15:16:53.470Z,101065.22
2022-10-05T15:19:41.132Z,101064.59
2022-10-05T15:22:29.335Z,101064.13
2022-10-05T15:25:06.144Z,101065.47
2022-10-05T15:28:07.475Z,101067.91
2022-10-05T15:30:42.963Z,101061.31
2022-10-05T15:33:37.950Z,101057.94
2022-10-05T15:36:29.159Z,101068.13
2022-10-05T15:39:21.802Z,101061.63
2022-10-05T15:42:08.115Z,101070.00
2022-10-05T15:45:06.171Z,101066.75
2022-10-05T15:48:29.094Z,101064.56
2022-10-05T15:51:10.681Z,101068.75
2022-10-05T15:53:48.157Z,101068.72
2022-10-05T15:56:48.262Z,101086.69
2022-10-05T15:59:40.173Z,101083.63
2022-10-05T16:02:57.373Z,101078.06
2022-10-05T16:05:51.944Z,101077.25
2022-10-05T16:09:04.642Z,101084.03
2022-10-05T16:12:03.186Z,101083.22
2022-10-05T16:15:06.453Z,101086.06
2022-10-05T16:18:03.641Z,101084.19
2022-10-05T16:21:26.431Z,101074.22
2022-10-05T16:25:07.722Z,101087.16
2022-10-05T16:28:05.356Z,101081.16
2022-10-05T16:30:58.921Z,101074.88
2022-10-05T16:33:54.693Z,101075.59
2022-10-05T16:36:45.491Z,101083.38
2022-10-05T16:39:52.132Z,101070.81
2022-10-05T16:42:34.831Z,101069.28
2022-10-05T16:45:45.403Z,101069.75
2022-10-05T16:48:47.898Z,101066.13
2022-10-05T16:51:57.903Z,101079.00
2022-10-05T16:54:33.585Z,101075.34
2022-10-05T16:57:22.490Z,101081.38
2022-10-05T17:00:15.045Z,101074.69
2022-10-05T17:02:55.777Z,101087.81
2022-10-05T17:05:44.288Z,101087.34
2022-10-05T17:08:36.757Z,101088.75
2022-10-05T17:14:51.633Z,101089.75
2022-10-05T17:17:52.068Z,101089.81
2022-10-05T17:20:40.199Z,101096.06
2022-10-05T17:23:44.238Z,101094.22
2022-10-05T17:26:23.130Z,101102.13
2022-10-05T17:29:17.031Z,101095.38
2022-10-05T17:32:16.016Z,101099.50
2022-10-05T17:35:01.165Z,101099.50
2022-10-05T17:37:27.993Z,101097.63
2022-10-05T17:39:57.439Z,101095.75
2022-10-05T17:42:28.689Z,101102.81
2022-10-05T17:45:21.440Z,101104.72
2022-10-05T17:48:09.365Z,101112.84
2022-10-05T17:51:03.615Z,101111.25
2022-10-05T17:54:02.255Z,101106.38
2022-10-05T17:56:32.281Z,101105.31
2022-10-05T17:59:04.105Z,101106.94
2022-10-05T18:01:41.496Z,101107.75
2022-10-05T18:04:11.452Z,101098.81
2022-10-05T18:06:59.016Z,101103.72
2022-10-05T18:09:27.097Z,101103.16
2022-10-05T18:12:25.945Z,101103.41
2022-10-05T18:15:07.963Z,101098.28
2022-10-05T18:17:45.541Z,101100.72
2022-10-05T18:20:25.417Z,101099.63
2022-10-05T18:23:25.500Z,101100.97
2022-10-05T18:26:07.187Z,101100.16
2022-10-05T18:29:14.680Z,101098.28
2022-10-05T18:32:01.303Z,101098.22
2022-10-05T18:34:44.734Z,101102.00
2022-10-05T18:37:48.369Z,101099.03
2022-10-05T18:40:38.323Z,101102.81
2022-10-05T18:43:18.240Z,101100.09
2022-10-05T18:46:09.033Z,101091.44
2022-10-05T18:48:49.923Z,101093.88
2022-10-05T18:51:31.194Z,101097.09
2022-10-05T18:54:54.286Z,101101.16
2022-10-05T18:58:04.174Z,101106.28
2022-10-05T19:01:27.001Z,101107.84
2022-10-05T19:04:37.794Z,101096.78
2022-10-05T19:07:37.631Z,101104.06
2022-10-05T19:10:33.118Z,101103.50
2022-10-05T19:13:10.826Z,101097.31
2022-10-05T19:16:22.606Z,101105.66
2022-10-05T19:19:29.466Z,101104.03
2022-10-05T19:22:45.873Z,101106.72
2022-10-05T19:26:13.336Z,101114.03
2022-10-05T19:29:27.058Z,101113.75
2022-10-05T19:32:01.669Z,101129.97
2022-10-05T19:35:07.586Z,101126.19
2022-10-05T19:38:09.580Z,101128.88
2022-10-05T19:41:06.088Z,101136.19
2022-10-05T19:44:10.926Z,101138.63
2022-10-05T19:47:09.365Z,101144.03
2022-10-05T19:49:58.759Z,101142.94
2022-10-05T19:52:45.141Z,101147.81
2022-10-05T19:55:26.562Z,101155.38
2022-10-05T19:58:01.221Z,101148.88
2022-10-05T20:00:33.042Z,101154.56
2022-10-05T20:03:23.602Z,101150.78
2022-10-05T20:05:50.473Z,101155.66
2022-10-05T20:08:21.713Z,101158.44
2022-10-05T20:11:27.578Z,101160.84
2022-10-05T20:13:55.196Z,101161.94
2022-10-05T20:16:48.330Z,101164.94
2022-10-05T20:19:52.157Z,101173.84
2022-10-05T20:22:37.244Z,101177.06
2022-10-05T20:25:29.828Z,101180.31
2022-10-05T20:27:57.958Z,101186.53
2022-10-05T20:30:30.958Z,101186.25
2022-10-05T20:33:04.424Z,101185.19
2022-10-05T20:35:31.333Z,101195.72
2022-10-05T20:38:01.979Z,101201.66
2022-10-05T20:40:30.349Z,101206.78
2022-10-05T20:42:58.390Z,101194.34
2022-10-05T20:45:25.508Z,101210.31
2022-10-05T20:47:52.556Z,101212.47
2022-10-05T20:50:21.061Z,101214.09
2022-10-05T20:52:47.867Z,101209.47
2022-10-05T20:55:14.939Z,101221.09
2022-10-05T20:57:42.242Z,101228.38
2022-10-05T21:00:13.251Z,101235.91
2022-10-05T21:02:40.324Z,101231.59
2022-10-05T21:05:07.986Z,101227.53
2022-10-05T21:07:35.529Z,101238.31
2022-10-05T21:10:03.658Z,101238.59
2022-10-05T21:12:30.873Z,101239.94
2022-10-05T21:14:59.702Z,101237.50
2022-10-05T21:17:26.508Z,101241.25
2022-10-05T21:19:53.804Z,101241.25
2022-10-05T21:22:20.584Z,101241.78
2022-10-05T21:24:48.530Z,101244.50
2022-10-05T21:27:15.505Z,101241.22
2022-10-05T21:29:44.055Z,101241.78
2022-10-05T21:32:11.612Z,101246.38
2022-10-05T21:34:40.283Z,101252.34
2022-10-05T21:37:10.297Z,101249.38
2022-10-05T21:39:37.322Z,101245.56
2022-10-05T21:42:04.560Z,101254.25
2022-10-05T21:44:31.604Z,101257.50
2022-10-05T21:46:58.721Z,101268.34
2022-10-05T21:49:26.564Z,101269.16
2022-10-05T21:51:53.999Z,101262.97
2022-10-05T21:54:23.519Z,101263.53
2022-10-05T21:56:53.928Z,101270.31
2022-10-05T21:59:24.255Z,101257.34
2022-10-05T22:01:52.045Z,101257.63
2022-10-05T22:04:18.873Z,101254.41
2022-10-05T22:06:45.914Z,101264.97
2022-10-05T22:09:12.801Z,101273.38
2022-10-05T22:11:39.895Z,101273.09
2022-10-05T22:14:07.200Z,101270.66
2022-10-05T22:16:38.417Z,101274.75
2022-10-05T22:19:13.407Z,101263.66
2022-10-05T22:21:41.752Z,101266.38
2022-10-05T22:24:11.507Z,101262.59
2022-10-05T22:26:40.655Z,101275.56
2022-10-05T22:29:08.159Z,101268.03
2022-10-05T22:31:35.517Z,101272.63
2022-10-05T22:34:02.623Z,101278.06
2022-10-05T22:36:29.479Z,101269.34
2022-10-05T22:38:56.467Z,101280.78
2022-10-05T22:41:23.546Z,101291.31
2022-10-05T22:43:51.477Z,101284.81
2022-10-05T22:46:18.904Z,101269.13
2022-10-05T22:48:45.770Z,101285.91
2022-10-05T22:51:12.944Z,101281.03
2022-10-05T22:53:39.835Z,101276.16
2022-10-05T22:56:14.257Z,101284.03
2022-10-05T22:58:43.252Z,101286.44
2022-10-05T23:01:15.398Z,101286.44
2022-10-05T23:03:42.854Z,101296.16
2022-10-05T23:06:19.667Z,101290.97
2022-10-05T23:08:47.245Z,101299.88
2022-10-05T23:11:22.731Z,101298.25
2022-10-05T23:13:55.710Z,101294.97
2022-10-05T23:16:29.745Z,101295.78
2022-10-05T23:18:57.636Z,101314.97
2022-10-05T23:21:28.774Z,101308.75
2022-10-05T23:23:57.445Z,101295.72
2022-10-05T23:26:25.958Z,101305.19
2022-10-05T23:28:53.150Z,101302.22
2022-10-05T23:31:25.173Z,101303.00
2022-10-05T23:33:53.786Z,101299.47
2022-10-05T23:36:24.153Z,101311.34
2022-10-05T23:38:52.173Z,101307.22
2022-10-05T23:41:22.415Z,101314.25
2022-10-05T23:43:49.669Z,101323.44
2022-10-05T23:46:17.801Z,101322.63
2022-10-05T23:48:44.785Z,101334.25
2022-10-05T23:51:14.112Z,101339.66
2022-10-05T23:53:41.245Z,101326.41
2022-10-05T23:56:08.495Z,101332.88
2022-10-05T23:58:35.780Z,101334.22
